Time;durP1;ratioP1;P1;durP2;ratioP2;P2;SDS_P1;SDS_P2;PMS_P1;PMS_P2;Temp;Humidity;BMP_temperature;BMP_pressure;BME280_temperature;BME280_humidity;BME280_pressure;Samples;Min_cycle;Max_cycle;Signal;HPM_P1;HPM_P2
2022/08/26 00:01:00;;;;;;;7.43;2.17;;;21.60;99.90;;;;;;5032474;28;20079;-87
2022/08/26 00:03:26;;;;;;;6.68;1.92;;;21.60;99.90;;;;;;5014428;28;20506;-87
2022/08/26 00:05:55;;;;;;;8.98;2.08;;;21.60;99.90;;;;;;5018277;28;20044;-87
2022/08/26 00:08:23;;;;;;;5.60;1.45;;;21.60;99.90;;;;;;5016945;28;20088;-88
2022/08/26 00:10:49;;;;;;;4.80;1.60;;;21.50;99.90;;;;;;5020238;28;20072;-87
2022/08/26 00:13:25;;;;;;;6.10;1.65;;;21.50;99.90;;;;;;5034443;28;20088;-87
2022/08/26 00:15:52;;;;;;;5.93;1.60;;;21.60;99.90;;;;;;5034878;28;20042;-87
2022/08/26 00:18:20;;;;;;;7.60;1.75;;;21.50;99.90;;;;;;5017896;28;20064;-87
2022/08/26 00:20:52;;;;;;;4.25;1.40;;;21.60;99.90;;;;;;5032724;28;20044;-88
2022/08/26 00:23:23;;;;;;;5.82;1.50;;;21.60;99.90;;;;;;5034067;28;20057;-89
2022/08/26 00:25:52;;;;;;;5.35;1.58;;;21.60;99.90;;;;;;5036015;28;20045;-88
2022/08/26 00:28:21;;;;;;;4.45;1.60;;;21.50;99.90;;;;;;5034381;28;20049;-88
2022/08/26 00:30:49;;;;;;;6.28;1.40;;;21.50;99.90;;;;;;5019103;28;20045;-87
2022/08/26 00:33:16;;;;;;;5.10;1.45;;;21.50;99.90;;;;;;5031969;28;20042;-86
2022/08/26 00:35:43;;;;;;;4.80;1.40;;;21.50;99.90;;;;;;5033816;28;20451;-88
2022/08/26 00:38:11;;;;;;;4.13;1.42;;;21.50;99.90;;;;;;5032715;28;20049;-87
2022/08/26 00:40:45;;;;;;;5.07;1.75;;;21.20;99.90;;;;;;5032752;28;20049;-88
2022/08/26 00:43:14;;;;;;;7.43;1.40;;;21.50;99.90;;;;;;5015896;28;20073;-88
2022/08/26 00:45:51;;;;;;;5.70;1.30;;;21.50;99.90;;;;;;5049388;28;20041;-88
2022/08/26 00:48:20;;;;;;;6.82;1.35;;;21.40;99.90;;;;;;5035036;28;20053;-87
2022/08/26 00:50:51;;;;;;;7.80;1.33;;;21.40;99.90;;;;;;5030498;28;20041;-87
2022/08/26 00:53:22;;;;;;;4.25;1.02;;;21.40;99.90;;;;;;5014950;28;20042;-88
2022/08/26 00:56:00;;;;;;;6.80;1.35;;;21.40;99.90;;;;;;5036634;28;20057;-86
2022/08/26 00:58:28;;;;;;;5.25;1.30;;;21.30;99.90;;;;;;5012111;28;20060;-87
2022/08/26 01:00:54;;;;;;;5.30;1.15;;;21.30;99.90;;;;;;5015454;28;20131;-87
2022/08/26 01:03:24;;;;;;;5.00;1.30;;;21.30;99.90;;;;;;5033967;28;20380;-87
2022/08/26 01:05:54;;;;;;;7.03;1.42;;;21.30;99.90;;;;;;5033209;28;20061;-87
2022/08/26 01:08:23;;;;;;;5.45;1.15;;;21.30;99.90;;;;;;5033704;28;20045;-87
2022/08/26 01:10:49;;;;;;;4.47;1.10;;;21.20;99.90;;;;;;5034252;28;20050;-87
2022/08/26 01:13:15;;;;;;;3.60;1.15;;;21.20;99.90;;;;;;5011540;28;20479;-87
2022/08/26 01:15:54;;;;;;;6.47;1.42;;;21.30;99.90;;;;;;5019506;28;20048;-87
2022/08/26 01:18:20;;;;;;;5.90;1.80;;;21.30;99.90;;;;;;5015843;28;20593;-87
2022/08/26 01:21:15;;;;;;;4.78;1.42;;;21.20;99.90;;;;;;5034574;28;20073;-86
2022/08/26 01:23:52;;;;;;;4.40;0.95;;;21.30;99.90;;;;;;5032556;28;20053;-88
2022/08/26 01:26:28;;;;;;;3.25;0.88;;;21.30;99.90;;;;;;5014731;28;20041;-87
2022/08/26 01:28:55;;;;;;;;;;;21.20;99.90;;;;;;5027145;28;20482;-89
2022/08/26 01:31:24;;;;;;;5.28;1.13;;;21.20;99.90;;;;;;5044580;28;20409;-86
2022/08/26 01:34:16;;;;;;;4.65;1.20;;;21.20;99.90;;;;;;5027469;28;20113;-87
2022/08/26 01:36:45;;;;;;;4.90;1.20;;;21.20;99.90;;;;;;5039335;28;20045;-85
2022/08/26 01:39:17;;;;;;;4.15;1.58;;;21.10;99.90;;;;;;5013097;28;20387;-86
2022/08/26 01:41:43;;;;;;;4.20;1.60;;;21.30;99.90;;;;;;5008751;28;20091;-87
2022/08/26 01:44:16;;;;;;;7.72;1.83;;;21.30;99.90;;;;;;5035492;28;20148;-87
2022/08/26 01:46:47;;;;;;;4.30;1.00;;;21.20;99.90;;;;;;5022719;28;20049;-87
2022/08/26 01:49:15;;;;;;;8.25;1.55;;;21.40;99.90;;;;;;5039432;28;20128;-89
2022/08/26 01:51:43;;;;;;;5.35;1.60;;;21.10;99.90;;;;;;5036052;28;20057;-88
2022/08/26 01:54:11;;;;;;;6.03;1.75;;;21.20;99.90;;;;;;5041118;28;20046;-86
2022/08/26 01:56:40;;;;;;;8.15;1.55;;;20.80;99.90;;;;;;5039328;28;20033;-88
2022/08/26 01:59:10;;;;;;;6.28;1.50;;;21.10;99.90;;;;;;5038643;28;20045;-87
2022/08/26 02:01:38;;;;;;;6.55;1.52;;;21.20;99.90;;;;;;5057032;28;20033;-87
2022/08/26 02:04:27;;;;;;;8.43;1.60;;;21.20;99.90;;;;;;5023469;28;20329;-88
2022/08/26 02:06:55;;;;;;;5.40;1.65;;;21.20;99.90;;;;;;5048007;28;20052;-88
2022/08/26 02:09:25;;;;;;;5.53;1.60;;;21.10;99.90;;;;;;5046539;28;20390;-87
2022/08/26 02:11:55;;;;;;;7.32;1.63;;;21.10;99.90;;;;;;5034983;28;20131;-87
2022/08/26 02:14:29;;;;;;;9.18;2.00;;;21.20;99.90;;;;;;5013229;28;20435;-86
2022/08/26 02:16:58;;;;;;;7.93;2.17;;;21.10;99.90;;;;;;5025744;28;20084;-87
2022/08/26 02:19:31;;;;;;;3.22;1.27;;;21.10;99.90;;;;;;5063356;28;20075;-88
2022/08/26 02:22:03;;;;;;;5.22;1.60;;;21.10;99.90;;;;;;5037210;28;20045;-87
2022/08/26 02:24:46;;;;;;;7.88;1.83;;;21.10;99.90;;;;;;5051567;28;20056;-86
2022/08/26 02:27:13;;;;;;;7.28;1.55;;;21.10;99.90;;;;;;5038778;28;20042;-87
2022/08/26 02:29:44;;;;;;;8.00;1.55;;;21.00;99.90;;;;;;5032479;28;20045;-88
2022/08/26 02:32:16;;;;;;;7.07;1.58;;;21.00;99.90;;;;;;5014525;28;20041;-87
2022/08/26 02:34:43;;;;;;;5.38;1.50;;;21.00;99.90;;;;;;4996049;28;20150;-87
2022/08/26 02:37:10;;;;;;;9.88;1.70;;;21.00;99.90;;;;;;5032943;28;20053;-88
2022/08/26 02:39:44;;;;;;;5.00;1.38;;;20.80;99.90;;;;;;5013948;28;20045;-87
2022/08/26 02:42:13;;;;;;;5.43;1.45;;;21.00;99.90;;;;;;5015509;28;20044;-88
2022/08/26 02:44:39;;;;;;;8.05;2.13;;;21.00;99.90;;;;;;5045745;28;20041;-87
2022/08/26 02:47:09;;;;;;;9.52;1.50;;;21.00;99.90;;;;;;5015730;28;20095;-87
2022/08/26 02:49:39;;;;;;;4.22;1.15;;;21.00;99.90;;;;;;5032708;28;20056;-87
2022/08/26 02:52:07;;;;;;;6.80;1.73;;;20.80;99.90;;;;;;5030974;28;20057;-89
2022/08/26 02:54:33;;;;;;;5.15;1.77;;;20.90;99.90;;;;;;5033533;28;20052;-86
2022/08/26 02:57:10;;;;;;;5.35;1.30;;;20.90;99.90;;;;;;5031987;28;20049;-88
2022/08/26 02:59:38;;;;;;;7.22;1.38;;;20.80;99.90;;;;;;5015491;28;20049;-87
2022/08/26 03:02:15;;;;;;;5.30;1.27;;;20.80;99.90;;;;;;5033830;28;20056;-87
2022/08/26 03:04:43;;;;;;;8.85;1.58;;;20.80;99.90;;;;;;4999303;28;20053;-86
2022/08/26 03:07:09;;;;;;;5.68;1.65;;;20.80;99.90;;;;;;5015076;28;20042;-86
2022/08/26 03:09:35;;;;;;;7.15;2.03;;;20.80;99.90;;;;;;5004818;28;20056;-87
2022/08/26 03:12:04;;;;;;;5.43;1.35;;;20.80;99.90;;;;;;5018163;28;20052;-89
2022/08/26 03:14:30;;;;;;;4.57;1.33;;;20.80;99.90;;;;;;5022029;28;20055;-87
2022/08/26 03:16:56;;;;;;;6.22;1.58;;;20.80;99.90;;;;;;5035550;28;20040;-87
2022/08/26 03:19:24;;;;;;;4.32;1.05;;;20.80;99.90;;;;;;5017201;28;20166;-87
2022/08/26 03:21:52;;;;;;;3.47;0.98;;;20.70;99.90;;;;;;5037947;28;20045;-87
2022/08/26 03:24:21;;;;;;;5.28;1.23;;;20.80;99.90;;;;;;5017814;28;20121;-87
2022/08/26 03:26:47;;;;;;;7.18;1.40;;;20.70;99.90;;;;;;5014778;28;20041;-86
2022/08/26 03:31:59;;;;;;;3.25;1.10;;;20.70;99.90;;;;;;5032538;28;20077;-87
2022/08/26 03:34:24;;;;;;;6.90;1.65;;;19.90;99.90;;;;;;5002427;28;20047;-87
2022/08/26 03:36:51;;;;;;;4.53;1.20;;;20.70;99.90;;;;;;5034000;28;20049;-87
2022/08/26 03:39:20;;;;;;;3.08;1.20;;;20.70;99.90;;;;;;5018275;28;20048;-87
2022/08/26 03:41:48;;;;;;;6.88;1.50;;;20.70;99.90;;;;;;5035482;28;20121;-88
2022/08/26 03:44:16;;;;;;;6.75;1.40;;;20.50;99.90;;;;;;5017804;28;20037;-87
2022/08/26 03:46:42;;;;;;;5.03;1.20;;;20.60;99.90;;;;;;5011830;28;20088;-87
2022/08/26 03:49:08;;;;;;;8.93;1.52;;;20.60;99.90;;;;;;4987786;28;20045;-87
2022/08/26 03:51:39;;;;;;;4.93;1.35;;;20.60;99.90;;;;;;5034412;28;20053;-87
2022/08/26 03:54:15;;;;;;;11.25;1.77;;;20.60;99.90;;;;;;5016439;28;20048;-86
2022/08/26 03:56:41;;;;;;;8.70;1.70;;;20.60;99.90;;;;;;5017085;28;20072;-87
2022/08/26 03:59:09;;;;;;;5.32;1.45;;;20.60;99.90;;;;;;5033557;28;20104;-87
2022/08/26 04:01:38;;;;;;;6.70;2.00;;;20.50;99.90;;;;;;5013979;28;20099;-86
2022/08/26 04:04:04;;;;;;;7.80;1.50;;;20.50;99.90;;;;;;5018882;28;20064;-88
2022/08/26 04:06:36;;;;;;;8.40;1.83;;;20.50;99.90;;;;;;5029525;28;20534;-87
2022/08/26 04:09:08;;;;;;;7.38;1.60;;;20.50;99.90;;;;;;5018221;28;20052;-87
2022/08/26 04:11:35;;;;;;;5.63;1.65;;;20.40;99.90;;;;;;5015913;28;20131;-87
2022/08/26 04:14:05;;;;;;;6.22;1.90;;;20.40;99.90;;;;;;5036461;28;20051;-85
2022/08/26 04:16:32;;;;;;;8.73;1.42;;;20.40;99.90;;;;;;5033320;28;20147;-86
2022/08/26 04:18:58;;;;;;;6.25;1.40;;;20.40;99.90;;;;;;5033885;28;20174;-86
2022/08/26 04:21:28;;;;;;;5.68;1.58;;;20.40;99.90;;;;;;5017777;28;20045;-87
2022/08/26 04:23:53;;;;;;;5.60;1.33;;;20.40;99.90;;;;;;5010928;28;20048;-86
2022/08/26 04:26:21;;;;;;;4.43;1.15;;;20.40;99.90;;;;;;5034898;28;20398;-86
2022/08/26 04:28:51;;;;;;;3.83;1.17;;;20.40;99.90;;;;;;5045020;28;20057;-87
2022/08/26 04:31:18;;;;;;;4.32;1.10;;;20.40;99.90;;;;;;5017487;28;20049;-86
2022/08/26 04:33:46;;;;;;;5.85;1.80;;;20.30;99.90;;;;;;5016980;28;20057;-86
2022/08/26 04:36:16;;;;;;;7.00;1.50;;;20.30;99.90;;;;;;5029326;28;20055;-88
2022/08/26 04:38:44;;;;;;;5.15;1.52;;;20.40;99.90;;;;;;5035058;28;20076;-85
2022/08/26 04:41:12;;;;;;;3.95;1.40;;;20.30;99.90;;;;;;5031083;28;20367;-88
2022/08/26 04:43:38;;;;;;;7.70;2.08;;;20.30;99.90;;;;;;5034881;28;20120;-86
2022/08/26 04:46:05;;;;;;;6.78;2.10;;;20.40;99.90;;;;;;5031867;28;20099;-87
2022/08/26 04:48:32;;;;;;;7.00;1.70;;;20.10;99.90;;;;;;5030976;28;20123;-86
2022/08/26 04:51:01;;;;;;;9.02;1.70;;;20.30;99.90;;;;;;5017736;28;20061;-86
2022/08/26 04:53:30;;;;;;;6.88;1.60;;;20.30;99.90;;;;;;5031586;28;20121;-87
2022/08/26 04:55:56;;;;;;;8.98;2.33;;;20.30;99.90;;;;;;5030779;28;20471;-86
2022/08/26 04:58:23;;;;;;;7.47;1.63;;;20.30;99.90;;;;;;5019242;28;20051;-86
2022/08/26 05:00:51;;;;;;;9.40;1.77;;;20.30;99.90;;;;;;5051483;28;20065;-86
2022/08/26 05:03:17;;;;;;;6.32;1.40;;;20.30;99.90;;;;;;5034186;28;20041;-87
2022/08/26 05:05:45;;;;;;;5.88;1.60;;;20.30;99.90;;;;;;5016109;28;20057;-86
2022/08/26 05:08:13;;;;;;;6.05;1.33;;;20.30;99.90;;;;;;5031953;28;20057;-87
2022/08/26 05:10:49;;;;;;;6.65;1.50;;;20.20;99.90;;;;;;5034571;28;20045;-86
2022/08/26 05:13:16;;;;;;;;;;;19.50;99.90;;;;;;5031248;28;20053;-86
2022/08/26 05:15:43;;;;;;;7.13;1.40;;;20.20;99.90;;;;;;5010335;28;19925;-85
2022/08/26 05:18:10;;;;;;;4.32;1.27;;;20.20;99.90;;;;;;5008366;28;20076;-86
2022/08/26 05:20:45;;;;;;;7.85;1.45;;;20.20;99.90;;;;;;5032027;28;20045;-86
2022/08/26 05:23:12;;;;;;;5.07;1.50;;;20.30;99.90;;;;;;5016996;28;20124;-87
2022/08/26 05:25:50;;;;;;;;;;;;;;;;;;;;;
2022/08/26 05:28:18;;;;;;;6.93;1.70;;;20.30;99.90;;;;;;5032762;28;20087;-87
2022/08/26 05:30:45;;;;;;;8.13;1.65;;;20.30;99.90;;;;;;5034030;28;20050;-87
2022/08/26 05:33:15;;;;;;;6.78;1.70;;;20.30;99.90;;;;;;5032489;28;20128;-87
2022/08/26 05:35:44;;;;;;;6.22;1.55;;;20.30;99.90;;;;;;5033259;28;20097;-88
2022/08/26 05:38:18;;;;;;;5.90;1.50;;;20.30;99.90;;;;;;5032339;28;20048;-87
2022/08/26 05:40:47;;;;;;;8.15;1.50;;;20.30;99.90;;;;;;5015497;28;20053;-87
2022/08/26 05:43:14;;;;;;;3.53;1.23;;;20.30;99.90;;;;;;5015827;28;20045;-86
2022/08/26 05:45:43;;;;;;;2.58;0.98;;;20.30;99.90;;;;;;5034702;28;20044;-87
2022/08/26 05:48:09;;;;;;;4.55;1.20;;;20.30;99.90;;;;;;5017594;28;20479;-88
2022/08/26 05:50:37;;;;;;;6.30;1.40;;;20.30;99.90;;;;;;4999446;28;20152;-87
2022/08/26 05:53:04;;;;;;;6.93;1.52;;;20.30;99.90;;;;;;5017233;28;20471;-88
2022/08/26 05:55:32;;;;;;;6.05;1.60;;;20.30;99.90;;;;;;5042169;28;20632;-86
2022/08/26 05:57:57;;;;;;;5.90;1.30;;;20.30;99.90;;;;;;5016981;28;20048;-86
2022/08/26 06:00:23;;;;;;;4.20;1.13;;;20.30;99.90;;;;;;5015464;28;20052;-86
2022/08/26 06:02:49;;;;;;;4.72;1.27;;;20.30;99.90;;;;;;5035405;28;20041;-81
2022/08/26 06:05:15;;;;;;;5.63;1.02;;;20.40;99.90;;;;;;5036107;28;20068;-84
2022/08/26 06:10:25;;;;;;;7.25;1.40;;;20.40;99.90;;;;;;5016747;28;20080;-87
2022/08/26 06:12:56;;;;;;;5.78;1.27;;;20.50;99.90;;;;;;5032779;28;20092;-87
2022/08/26 06:15:22;;;;;;;5.28;1.27;;;20.50;99.90;;;;;;5001241;28;20065;-83
2022/08/26 06:17:50;;;;;;;4.75;1.55;;;20.40;99.90;;;;;;5033294;28;20057;-85
2022/08/26 06:20:25;;;;;;;8.20;1.30;;;20.50;99.90;;;;;;5048314;28;20564;-86
2022/08/26 06:25:43;;;;;;;6.82;1.65;;;20.40;99.90;;;;;;5052751;28;21523;-86
2022/08/26 06:28:14;;;;;;;7.97;1.70;;;20.40;99.90;;;;;;5016925;28;20064;-87
2022/08/26 06:30:41;;;;;;;3.95;1.13;;;20.40;99.90;;;;;;5018593;28;20059;-88
2022/08/26 06:33:08;;;;;;;6.30;1.50;;;20.60;99.90;;;;;;5037859;28;20057;-86
2022/08/26 06:35:41;;;;;;;3.50;0.90;;;19.40;99.90;;;;;;5012906;28;20103;-84
2022/08/26 06:38:08;;;;;;;6.38;1.60;;;20.30;99.90;;;;;;5036733;28;20056;-84
2022/08/26 06:40:47;;;;;;;5.00;1.25;;;20.30;99.90;;;;;;5032025;28;20052;-86
2022/08/26 06:43:16;;;;;;;5.45;1.50;;;20.30;99.90;;;;;;5021010;28;20328;-87
2022/08/26 06:45:50;;;;;;;6.43;1.52;;;20.30;99.90;;;;;;5005641;28;20502;-85
2022/08/26 06:48:20;;;;;;;5.38;1.20;;;20.30;99.90;;;;;;5029307;28;20061;-86
2022/08/26 06:50:49;;;;;;;3.95;1.17;;;20.30;99.90;;;;;;5024942;28;20548;-88
2022/08/26 06:53:25;;;;;;;3.47;0.73;;;20.20;99.90;;;;;;5025360;28;20091;-89
2022/08/26 06:55:56;;;;;;;6.78;1.00;;;20.30;99.90;;;;;;5027310;28;20131;-86
2022/08/26 06:58:22;;;;;;;8.88;1.42;;;20.50;99.90;;;;;;5008909;28;20041;-85
2022/08/26 07:00:58;;;;;;;7.47;1.10;;;20.00;99.90;;;;;;5038359;28;20096;-87
2022/08/26 07:03:29;;;;;;;;;;;19.80;99.90;;;;;;5019348;28;20521;-86
2022/08/26 07:06:01;;;;;;;3.70;1.00;;;20.40;99.90;;;;;;5029153;28;20023;-85
2022/08/26 07:08:27;;;;;;;4.72;1.23;;;20.40;99.90;;;;;;5001792;28;20508;-87
2022/08/26 07:10:56;;;;;;;2.13;0.80;;;20.40;99.90;;;;;;5014171;28;20557;-85
2022/08/26 07:13:22;;;;;;;5.53;1.00;;;20.40;99.90;;;;;;5025966;28;20473;-85
2022/08/26 07:15:48;;;;;;;5.40;1.13;;;20.40;99.90;;;;;;4985108;28;20045;-85
2022/08/26 07:18:26;;;;;;;4.63;1.10;;;20.30;99.90;;;;;;5030375;28;20051;-85
2022/08/26 07:20:52;;;;;;;4.97;1.52;;;20.30;99.90;;;;;;5003658;28;20071;-85
2022/08/26 07:23:18;;;;;;;4.18;1.05;;;20.30;99.90;;;;;;5034000;28;20046;-84
2022/08/26 07:25:43;;;;;;;3.17;0.90;;;20.80;99.90;;;;;;4994757;28;20106;-84
2022/08/26 07:28:09;;;;;;;5.07;1.15;;;20.20;99.90;;;;;;5033685;28;20041;-85
2022/08/26 07:30:39;;;;;;;4.82;1.40;;;20.20;99.90;;;;;;5014908;28;20083;-84
2022/08/26 07:33:06;;;;;;;6.20;1.30;;;20.10;99.90;;;;;;5031025;28;20139;-84
2022/08/26 07:35:32;;;;;;;4.50;1.25;;;20.10;99.90;;;;;;5016595;28;20055;-84
2022/08/26 07:37:57;;;;;;;5.55;1.33;;;20.10;99.90;;;;;;5020020;28;20053;-84
2022/08/26 07:40:24;;;;;;;6.90;1.50;;;20.10;99.90;;;;;;5001792;28;20780;-84
2022/08/26 07:42:50;;;;;;;7.30;1.05;;;19.90;99.90;;;;;;5019522;28;20048;-83
2022/08/26 07:45:15;;;;;;;7.18;1.17;;;20.20;99.90;;;;;;5022369;28;20545;-84
2022/08/26 07:47:41;;;;;;;4.03;0.98;;;20.30;99.90;;;;;;5019204;28;20040;-84
2022/08/26 07:50:08;;;;;;;5.10;1.00;;;20.30;99.90;;;;;;5023869;28;20055;-83
2022/08/26 07:52:36;;;;;;;4.05;0.90;;;20.40;99.90;;;;;;5020206;28;20057;-84
2022/08/26 07:55:04;;;;;;;7.18;1.05;;;20.20;99.90;;;;;;5023289;28;20053;-83
2022/08/26 07:57:31;;;;;;;6.15;1.08;;;20.50;99.90;;;;;;5037980;28;20053;-85
2022/08/26 07:59:58;;;;;;;7.00;1.20;;;20.50;99.90;;;;;;5039057;28;20111;-85
2022/08/26 08:02:25;;;;;;;5.72;1.15;;;20.60;99.90;;;;;;5025554;28;20053;-87
2022/08/26 08:04:52;;;;;;;5.22;1.50;;;20.60;99.90;;;;;;5038054;28;20038;-84
2022/08/26 08:07:18;;;;;;;4.07;1.05;;;20.70;99.90;;;;;;5034278;28;20095;-84
2022/08/26 08:09:53;;;;;;;2.13;0.90;;;21.00;99.90;;;;;;5019105;28;20060;-87
2022/08/26 08:12:19;;;;;;;6.83;0.97;;;21.00;99.90;;;;;;5031028;28;20474;-84
2022/08/26 08:14:46;;;;;;;2.85;0.85;;;20.80;99.90;;;;;;5018653;28;20052;-87
2022/08/26 08:17:15;;;;;;;4.97;1.05;;;19.80;99.90;;;;;;5009803;28;20045;-88
2022/08/26 08:19:41;;;;;;;6.35;1.35;;;21.50;99.90;;;;;;5008885;28;20063;-87
2022/08/26 08:22:08;;;;;;;5.15;1.23;;;20.70;99.90;;;;;;5011566;28;20052;-86
2022/08/26 08:24:34;;;;;;;3.53;0.90;;;20.70;99.90;;;;;;5026597;28;20080;-82
2022/08/26 08:27:02;;;;;;;6.32;1.05;;;20.60;99.90;;;;;;5014885;28;20096;-84
2022/08/26 08:29:28;;;;;;;5.53;1.20;;;20.70;99.90;;;;;;4992648;28;20054;-85
2022/08/26 08:31:58;;;;;;;4.95;0.98;;;20.70;99.90;;;;;;4991055;28;20062;-86
2022/08/26 08:34:26;;;;;;;3.17;0.90;;;20.70;99.90;;;;;;4992645;28;20061;-85
2022/08/26 08:36:52;;;;;;;6.53;1.10;;;20.60;99.90;;;;;;5011935;28;20048;-87
2022/08/26 08:39:20;;;;;;;7.47;1.23;;;20.20;99.90;;;;;;5035250;28;20160;-86
2022/08/26 08:42:39;;;;;;;4.22;0.90;;;20.70;99.90;;;;;;5017657;28;20053;-86
2022/08/26 08:45:31;;;;;;;4.10;1.05;;;20.70;99.90;;;;;;5025739;28;20107;-85
2022/08/26 08:48:01;;;;;;;2.95;0.75;;;20.70;99.90;;;;;;5031479;28;20056;-86
2022/08/26 08:50:40;;;;;;;5.05;0.90;;;20.70;99.90;;;;;;5029108;28;20103;-83
2022/08/26 08:53:23;;;;;;;4.32;0.90;;;20.90;99.90;;;;;;5018402;28;20491;-83
2022/08/26 08:56:02;;;;;;;5.13;1.25;;;20.30;99.90;;;;;;5032826;28;20467;-84
2022/08/26 08:58:48;;;;;;;3.58;1.10;;;20.70;99.90;;;;;;5032947;28;20049;-81
2022/08/26 09:01:41;;;;;;;5.43;0.82;;;20.70;99.90;;;;;;5015634;28;20068;-82
2022/08/26 09:04:31;;;;;;;2.47;0.73;;;20.70;99.90;;;;;;5033543;28;20048;-86
2022/08/26 09:07:00;;;;;;;3.92;0.95;;;20.70;99.90;;;;;;5034711;28;20048;-82
2022/08/26 09:09:38;;;;;;;3.38;0.90;;;20.70;99.90;;;;;;5039156;28;20056;-83
2022/08/26 09:12:09;;;;;;;3.67;1.08;;;20.80;99.90;;;;;;5038065;28;20083;-83
2022/08/26 09:14:39;;;;;;;4.10;0.77;;;20.80;99.90;;;;;;5038860;28;20044;-81
2022/08/26 09:17:33;;;;;;;3.17;0.98;;;20.80;99.90;;;;;;5021806;28;20174;-82
2022/08/26 09:20:17;;;;;;;4.78;1.15;;;20.90;99.90;;;;;;5039136;28;20049;-84
2022/08/26 09:22:50;;;;;;;3.08;0.90;;;20.60;99.90;;;;;;5038098;28;20621;-83
2022/08/26 09:25:16;;;;;;;4.05;0.95;;;21.00;99.90;;;;;;5005011;28;20053;-81
2022/08/26 09:27:51;;;;;;;4.07;1.17;;;21.00;99.90;;;;;;5038825;28;20045;-81
2022/08/26 09:30:29;;;;;;;5.13;1.07;;;21.10;99.90;;;;;;5036139;28;20064;-81
2022/08/26 09:33:04;;;;;;;2.63;0.80;;;21.00;99.90;;;;;;5038404;28;20053;-83
2022/08/26 09:35:34;;;;;;;2.40;0.80;;;21.10;99.90;;;;;;5036807;28;20489;-82
2022/08/26 09:38:00;;;;;;;3.90;0.82;;;21.20;99.90;;;;;;5054122;28;20048;-82
2022/08/26 09:40:32;;;;;;;2.90;0.90;;;21.20;99.90;;;;;;5037668;28;20775;-83
2022/08/26 09:43:06;;;;;;;2.53;0.90;;;21.20;99.90;;;;;;5039047;28;20067;-82
2022/08/26 09:45:32;;;;;;;2.20;0.60;;;21.40;99.90;;;;;;5037823;28;20045;-82
2022/08/26 09:47:58;;;;;;;3.67;0.70;;;21.60;99.90;;;;;;5019833;28;20057;-82
2022/08/26 09:50:37;;;;;;;3.70;0.82;;;21.80;99.90;;;;;;5019704;28;20052;-83
2022/08/26 09:53:14;;;;;;;2.85;0.80;;;22.00;99.90;;;;;;5020522;28;20041;-82
2022/08/26 09:55:44;;;;;;;2.90;0.80;;;22.10;99.90;;;;;;5020243;28;20077;-82
2022/08/26 09:58:29;;;;;;;2.72;0.77;;;22.30;99.90;;;;;;5023231;28;20114;-82
2022/08/26 10:00:57;;;;;;;3.92;0.82;;;22.40;99.90;;;;;;5038355;28;20045;-83
2022/08/26 10:03:31;;;;;;;4.60;0.73;;;22.60;99.90;;;;;;5042592;28;20132;-81
2022/08/26 10:06:23;;;;;;;3.72;0.75;;;22.80;99.90;;;;;;5038225;28;20085;-82
2022/08/26 10:08:57;;;;;;;4.82;0.90;;;23.00;99.90;;;;;;5039759;28;20493;-83
2022/08/26 10:11:25;;;;;;;8.85;1.15;;;23.00;99.90;;;;;;5020829;28;20042;-80
2022/08/26 10:14:00;;;;;;;4.15;0.82;;;23.00;99.90;;;;;;5026396;28;20509;-83
2022/08/26 10:16:32;;;;;;;4.17;1.00;;;23.00;99.90;;;;;;5016441;28;20048;-83
2022/08/26 10:19:08;;;;;;;4.43;1.23;;;22.90;99.90;;;;;;5029030;28;20179;-84
2022/08/26 10:22:03;;;;;;;5.82;1.30;;;22.90;99.90;;;;;;5027398;28;20053;-82
2022/08/26 10:24:43;;;;;;;3.08;0.88;;;23.00;99.90;;;;;;5010969;28;20560;-85
2022/08/26 10:27:22;;;;;;;2.13;0.88;;;22.90;99.90;;;;;;5030456;28;20049;-84
2022/08/26 10:29:53;;;;;;;4.20;1.05;;;22.80;99.90;;;;;;5014091;28;20099;-82
2022/08/26 10:32:28;;;;;;;5.45;1.52;;;22.70;99.90;;;;;;5031218;28;20372;-83
2022/08/26 10:34:56;;;;;;;4.35;1.20;;;22.50;99.90;;;;;;5015820;28;20061;-85
2022/08/26 10:37:47;;;;;;;3.38;0.90;;;22.50;99.90;;;;;;5031320;28;20045;-83
2022/08/26 10:40:50;;;;;;;3.00;1.00;;;22.50;99.90;;;;;;5031844;28;20045;-85
2022/08/26 10:43:26;;;;;;;3.58;1.20;;;22.50;99.90;;;;;;5030193;28;20037;-85
2022/08/26 10:46:27;;;;;;;2.28;0.73;;;22.40;99.90;;;;;;5014834;28;20049;-86
2022/08/26 10:49:14;;;;;;;6.50;1.08;;;23.20;99.90;;;;;;5026520;28;20080;-84
2022/08/26 10:52:13;;;;;;;4.07;0.80;;;22.50;99.90;;;;;;5030066;28;20057;-87
2022/08/26 10:54:44;;;;;;;3.22;0.93;;;22.50;99.90;;;;;;5047933;28;20053;-84
2022/08/26 10:57:24;;;;;;;7.40;1.65;;;22.60;99.90;;;;;;5037914;28;20111;-84
2022/08/26 11:01:40;;;;;;;5.00;1.50;;;22.80;99.90;;;;;;5020699;28;20057;-83
2022/08/26 11:02:53;;;;;;;3.90;1.10;;;23.00;99.90;;;;;;5040500;28;20634;-85
2022/08/26 11:05:24;;;;;;;4.03;1.20;;;23.00;99.90;;;;;;5024391;28;20053;-84
2022/08/26 11:08:19;;;;;;;2.78;1.15;;;23.10;99.90;;;;;;5030149;28;20120;-83
2022/08/26 11:10:55;;;;;;;2.70;1.00;;;23.90;99.90;;;;;;5032650;28;20068;-84
2022/08/26 11:13:57;;;;;;;6.35;1.10;;;23.30;99.90;;;;;;5027891;28;20034;-82
2022/08/26 11:16:37;;;;;;;2.35;0.80;;;23.30;99.90;;;;;;5025544;28;20549;-82
2022/08/26 11:19:03;;;;;;;3.17;0.90;;;23.50;99.90;;;;;;5038816;28;20077;-81
2022/08/26 11:21:50;;;;;;;3.20;1.50;;;23.50;99.90;;;;;;5037048;28;20042;-82
2022/08/26 11:24:55;;;;;;;1.73;0.73;;;23.90;99.90;;;;;;5042886;28;20083;-83
2022/08/26 11:27:32;;;;;;;4.78;1.25;;;23.90;99.90;;;;;;5015458;28;20128;-84
2022/08/26 11:30:19;;;;;;;3.58;0.90;;;24.00;99.90;;;;;;5005999;28;20424;-85
2022/08/26 11:32:50;;;;;;;4.13;0.80;;;24.00;99.90;;;;;;5015652;28;20045;-84
2022/08/26 11:35:19;;;;;;;5.45;1.10;;;24.10;99.90;;;;;;5042940;28;20050;-84
2022/08/26 11:37:53;;;;;;;2.85;0.88;;;23.90;99.90;;;;;;5033831;28;20071;-86
2022/08/26 11:40:20;;;;;;;3.25;0.95;;;23.80;99.90;;;;;;5030508;28;20450;-85
2022/08/26 11:43:25;;;;;;;3.40;0.80;;;23.80;99.90;;;;;;5039784;28;20159;-85
2022/08/26 11:46:25;;;;;;;2.03;0.90;;;23.90;99.90;;;;;;5022181;28;20106;-85
2022/08/26 11:49:29;;;;;;;;;;;;;;;;;;;;;
2022/08/26 11:52:28;;;;;;;2.97;0.90;;;23.80;99.90;;;;;;5038054;28;20049;-86
2022/08/26 11:55:19;;;;;;;3.90;0.80;;;23.30;99.90;;;;;;5013956;28;20134;-85
2022/08/26 12:01:08;;;;;;;4.90;0.95;;;23.10;99.90;;;;;;5015329;28;20057;-85
2022/08/26 12:04:06;;;;;;;2.67;0.85;;;23.00;99.90;;;;;;5037787;28;20045;-87
2022/08/26 12:06:46;;;;;;;4.90;1.00;;;22.90;99.90;;;;;;5022647;28;20053;-86
2022/08/26 12:09:26;;;;;;;4.18;1.23;;;22.50;99.90;;;;;;5046962;28;20061;-85
2022/08/26 12:12:14;;;;;;;3.17;1.20;;;22.60;99.90;;;;;;5030426;28;20080;-84
2022/08/26 12:14:43;;;;;;;3.60;1.00;;;22.60;99.90;;;;;;5021572;28;20127;-85
2022/08/26 12:17:13;;;;;;;4.80;0.93;;;21.90;99.90;;;;;;5037408;28;20465;-84
2022/08/26 12:19:39;;;;;;;2.33;0.90;;;22.60;99.90;;;;;;5038237;28;20049;-84
2022/08/26 12:22:23;;;;;;;6.32;0.80;;;22.60;99.90;;;;;;4998727;28;20060;-84
2022/08/26 12:24:59;;;;;;;2.38;0.88;;;22.60;99.90;;;;;;5021593;28;20080;-84
2022/08/26 12:27:36;;;;;;;3.58;0.80;;;22.60;99.90;;;;;;5023487;28;20048;-85
2022/08/26 12:30:10;;;;;;;2.53;0.95;;;22.40;99.90;;;;;;5024330;28;20037;-83
2022/08/26 12:32:40;;;;;;;5.53;0.90;;;22.40;99.90;;;;;;5029468;28;20127;-84
2022/08/26 12:35:12;;;;;;;3.90;0.80;;;22.30;99.90;;;;;;5035769;28;20510;-83
2022/08/26 12:37:41;;;;;;;3.17;0.93;;;22.90;99.90;;;;;;5037510;28;20041;-84
2022/08/26 12:40:29;;;;;;;3.40;0.93;;;22.10;99.90;;;;;;5022162;28;20088;-82
2022/08/26 12:42:58;;;;;;;3.97;0.95;;;22.10;99.90;;;;;;5027755;28;20076;-83
2022/08/26 12:45:42;;;;;;;3.25;1.10;;;22.10;99.90;;;;;;5032198;28;20072;-83
2022/08/26 12:48:12;;;;;;;2.50;0.68;;;22.00;99.90;;;;;;5008805;28;20045;-83
2022/08/26 12:50:49;;;;;;;4.70;1.15;;;21.90;99.90;;;;;;5031530;28;20513;-83
2022/08/26 12:53:27;;;;;;;3.97;1.00;;;21.90;99.90;;;;;;5031473;28;20396;-83
2022/08/26 12:56:03;;;;;;;3.00;0.90;;;21.80;99.90;;;;;;5030621;28;20055;-83
2022/08/26 12:58:35;;;;;;;2.90;0.90;;;21.80;99.90;;;;;;5013945;28;20056;-83
2022/08/26 13:01:03;;;;;;;3.42;0.80;;;21.90;99.90;;;;;;5029434;28;20041;-83
2022/08/26 13:03:43;;;;;;;3.45;0.90;;;21.90;99.90;;;;;;5010368;28;20045;-83
2022/08/26 13:06:21;;;;;;;3.97;1.00;;;21.90;99.90;;;;;;5029806;28;20173;-83
2022/08/26 13:08:51;;;;;;;4.47;0.98;;;21.90;99.90;;;;;;5028832;28;20149;-82
2022/08/26 13:11:26;;;;;;;2.75;0.80;;;22.00;99.90;;;;;;5040354;28;20060;-83
2022/08/26 13:14:06;;;;;;;3.63;1.00;;;21.90;99.90;;;;;;5030291;28;20108;-86
2022/08/26 13:16:32;;;;;;;5.10;1.30;;;21.90;99.90;;;;;;5014753;28;21671;-83
2022/08/26 13:19:01;;;;;;;3.38;1.02;;;21.80;99.90;;;;;;5009479;28;20129;-83
2022/08/26 13:21:30;;;;;;;2.10;0.70;;;21.90;99.90;;;;;;5026015;28;20956;-83
2022/08/26 13:24:01;;;;;;;3.55;0.70;;;21.90;99.90;;;;;;5025432;28;20041;-83
2022/08/26 13:26:27;;;;;;;3.70;0.88;;;21.90;99.90;;;;;;5026439;28;20182;-83
2022/08/26 13:28:58;;;;;;;1.58;0.80;;;22.00;99.90;;;;;;5024362;28;20123;-82